sensor_id;sensor_type;location;lat;lon;timestamp;P1;P2;P0
65803;PMS5003;65658;63.740;34.316;2023-04-15T00:02:35;6;6;
65803;PMS5003;65658;63.740;34.316;2023-04-15T00:06:22;8;10;
65803;PMS5003;65658;63.740;34.316;2023-04-15T00:10:10;6;7;
65803;PMS5003;65658;63.740;34.316;2023-04-15T00:13:56;5;5;
65803;PMS5003;65658;63.740;34.316;2023-04-15T00:17:53;5;7;
65803;PMS5003;65658;63.740;34.316;2023-04-15T00:21:40;6;6;
65803;PMS5003;65658;63.740;34.316;2023-04-15T00:25:28;5;5;
65803;PMS5003;65658;63.740;34.316;2023-04-15T00:29:15;3;3;
65803;PMS5003;65658;63.740;34.316;2023-04-15T00:33:02;5;6;
65803;PMS5003;65658;63.740;34.316;2023-04-15T00:36:50;5;6;
65803;PMS5003;65658;63.740;34.316;2023-04-15T00:40:36;7;7;
65803;PMS5003;65658;63.740;34.316;2023-04-15T00:44:25;6;6;
65803;PMS5003;65658;63.740;34.316;2023-04-15T00:48:12;3;3;
65803;PMS5003;65658;63.740;34.316;2023-04-15T00:55:51;5;5;
65803;PMS5003;65658;63.740;34.316;2023-04-15T01:03:44;5;5;
65803;PMS5003;65658;63.740;34.316;2023-04-15T01:07:31;3;3;
65803;PMS5003;65658;63.740;34.316;2023-04-15T01:11:18;7;7;
65803;PMS5003;65658;63.740;34.316;2023-04-15T01:15:13;6;6;
65803;PMS5003;65658;63.740;34.316;2023-04-15T01:19:13;10;11;
65803;PMS5003;65658;63.740;34.316;2023-04-15T01:23:13;7;7;
65803;PMS5003;65658;63.740;34.316;2023-04-15T01:27:01;5;7;
65803;PMS5003;65658;63.740;34.316;2023-04-15T01:31:08;6;7;
65803;PMS5003;65658;63.740;34.316;2023-04-15T01:34:54;9;9;
65803;PMS5003;65658;63.740;34.316;2023-04-15T01:38:54;10;11;
65803;PMS5003;65658;63.740;34.316;2023-04-15T01:42:41;10;10;
65803;PMS5003;65658;63.740;34.316;2023-04-15T01:46:29;6;6;
65803;PMS5003;65658;63.740;34.316;2023-04-15T01:50:16;10;11;
65803;PMS5003;65658;63.740;34.316;2023-04-15T01:54:03;9;9;
65803;PMS5003;65658;63.740;34.316;2023-04-15T01:58:02;7;8;
65803;PMS5003;65658;63.740;34.316;2023-04-15T02:01:50;6;8;
65803;PMS5003;65658;63.740;34.316;2023-04-15T02:05:36;6;7;
65803;PMS5003;65658;63.740;34.316;2023-04-15T02:09:22;5;5;
65803;PMS5003;65658;63.740;34.316;2023-04-15T02:13:08;3;3;
65803;PMS5003;65658;63.740;34.316;2023-04-15T02:16:55;6;6;
65803;PMS5003;65658;63.740;34.316;2023-04-15T02:20:43;7;8;
65803;PMS5003;65658;63.740;34.316;2023-04-15T02:24:29;6;6;
65803;PMS5003;65658;63.740;34.316;2023-04-15T02:28:16;5;5;
65803;PMS5003;65658;63.740;34.316;2023-04-15T02:32:03;10;10;
65803;PMS5003;65658;63.740;34.316;2023-04-15T02:35:50;7;7;
65803;PMS5003;65658;63.740;34.316;2023-04-15T02:39:47;7;8;
65803;PMS5003;65658;63.740;34.316;2023-04-15T02:43:34;3;5;
65803;PMS5003;65658;63.740;34.316;2023-04-15T02:47:21;5;5;
65803;PMS5003;65658;63.740;34.316;2023-04-15T02:55:00;5;5;
65803;PMS5003;65658;63.740;34.316;2023-04-15T02:58:56;6;7;
65803;PMS5003;65658;63.740;34.316;2023-04-15T03:03:00;5;8;
65803;PMS5003;65658;63.740;34.316;2023-04-15T03:14:29;5;5;
65803;PMS5003;65658;63.740;34.316;2023-04-15T03:18:17;6;7;
65803;PMS5003;65658;63.740;34.316;2023-04-15T03:22:04;6;6;
65803;PMS5003;65658;63.740;34.316;2023-04-15T03:29:42;4;4;
65803;PMS5003;65658;63.740;34.316;2023-04-15T03:33:28;4;4;
65803;PMS5003;65658;63.740;34.316;2023-04-15T03:37:15;4;4;
65803;PMS5003;65658;63.740;34.316;2023-04-15T03:41:01;4;4;
65803;PMS5003;65658;63.740;34.316;2023-04-15T03:44:47;4;4;
65803;PMS5003;65658;63.740;34.316;2023-04-15T03:48:33;3;3;
65803;PMS5003;65658;63.740;34.316;2023-04-15T03:52:19;2;2;
65803;PMS5003;65658;63.740;34.316;2023-04-15T03:56:06;3;3;
65803;PMS5003;65658;63.740;34.316;2023-04-15T03:59:53;3;3;
65803;PMS5003;65658;63.740;34.316;2023-04-15T04:03:38;3;4;
65803;PMS5003;65658;63.740;34.316;2023-04-15T04:15:07;3;3;
65803;PMS5003;65658;63.740;34.316;2023-04-15T04:18:53;4;5;
65803;PMS5003;65658;63.740;34.316;2023-04-15T04:30:22;3;3;
65803;PMS5003;65658;63.740;34.316;2023-04-15T04:34:08;3;3;
65803;PMS5003;65658;63.740;34.316;2023-04-15T04:37:54;3;3;
65803;PMS5003;65658;63.740;34.316;2023-04-15T04:41:40;4;4;
65803;PMS5003;65658;63.740;34.316;2023-04-15T04:45:26;2;2;
65803;PMS5003;65658;63.740;34.316;2023-04-15T04:53:14;3;3;
65803;PMS5003;65658;63.740;34.316;2023-04-15T04:57:00;3;3;
65803;PMS5003;65658;63.740;34.316;2023-04-15T05:00:46;3;3;
65803;PMS5003;65658;63.740;34.316;2023-04-15T05:04:34;2;2;
65803;PMS5003;65658;63.740;34.316;2023-04-15T05:08:20;3;4;
65803;PMS5003;65658;63.740;34.316;2023-04-15T05:12:17;1;1;
65803;PMS5003;65658;63.740;34.316;2023-04-15T05:16:03;3;4;
65803;PMS5003;65658;63.740;34.316;2023-04-15T05:19:49;3;3;
65803;PMS5003;65658;63.740;34.316;2023-04-15T05:23:36;3;3;
65803;PMS5003;65658;63.740;34.316;2023-04-15T05:35:05;3;3;
65803;PMS5003;65658;63.740;34.316;2023-04-15T05:38:51;3;3;
65803;PMS5003;65658;63.740;34.316;2023-04-15T05:42:37;31;32;
65803;PMS5003;65658;63.740;34.316;2023-04-15T05:46:23;6;8;
65803;PMS5003;65658;63.740;34.316;2023-04-15T05:50:10;4;4;
65803;PMS5003;65658;63.740;34.316;2023-04-15T05:54:06;4;4;
65803;PMS5003;65658;63.740;34.316;2023-04-15T05:57:52;4;4;
65803;PMS5003;65658;63.740;34.316;2023-04-15T06:01:39;4;4;
65803;PMS5003;65658;63.740;34.316;2023-04-15T06:05:25;4;4;
65803;PMS5003;65658;63.740;34.316;2023-04-15T06:09:12;2;3;
65803;PMS5003;65658;63.740;34.316;2023-04-15T06:12:58;2;2;
65803;PMS5003;65658;63.740;34.316;2023-04-15T06:16:45;3;3;
65803;PMS5003;65658;63.740;34.316;2023-04-15T06:20:42;1;1;
65803;PMS5003;65658;63.740;34.316;2023-04-15T06:32:33;3;4;
65803;PMS5003;65658;63.740;34.316;2023-04-15T06:36:20;4;5;
65803;PMS5003;65658;63.740;34.316;2023-04-15T06:43:57;3;3;
65803;PMS5003;65658;63.740;34.316;2023-04-15T06:47:44;1;1;
65803;PMS5003;65658;63.740;34.316;2023-04-15T06:55:21;3;3;
65803;PMS5003;65658;63.740;34.316;2023-04-15T06:59:07;3;3;
65803;PMS5003;65658;63.740;34.316;2023-04-15T07:10:37;3;4;
65803;PMS5003;65658;63.740;34.316;2023-04-15T07:14:23;2;2;
65803;PMS5003;65658;63.740;34.316;2023-04-15T07:18:10;3;3;
65803;PMS5003;65658;63.740;34.316;2023-04-15T07:22:07;3;3;
65803;PMS5003;65658;63.740;34.316;2023-04-15T07:25:54;3;3;
65803;PMS5003;65658;63.740;34.316;2023-04-15T07:29:52;4;4;
65803;PMS5003;65658;63.740;34.316;2023-04-15T07:33:38;5;5;
65803;PMS5003;65658;63.740;34.316;2023-04-15T07:41:26;10;10;
65803;PMS5003;65658;63.740;34.316;2023-04-15T07:45:12;3;3;
65803;PMS5003;65658;63.740;34.316;2023-04-15T07:52:50;6;7;
65803;PMS5003;65658;63.740;34.316;2023-04-15T08:00:27;3;3;
65803;PMS5003;65658;63.740;34.316;2023-04-15T08:04:14;3;3;
65803;PMS5003;65658;63.740;34.316;2023-04-15T08:08:01;3;3;
65803;PMS5003;65658;63.740;34.316;2023-04-15T08:11:48;4;4;
65803;PMS5003;65658;63.740;34.316;2023-04-15T08:15:34;3;3;
65803;PMS5003;65658;63.740;34.316;2023-04-15T08:19:20;3;3;
65803;PMS5003;65658;63.740;34.316;2023-04-15T08:23:17;2;2;
65803;PMS5003;65658;63.740;34.316;2023-04-15T08:27:03;2;2;
65803;PMS5003;65658;63.740;34.316;2023-04-15T08:30:51;3;3;
65803;PMS5003;65658;63.740;34.316;2023-04-15T08:34:37;2;2;
65803;PMS5003;65658;63.740;34.316;2023-04-15T08:38:23;3;3;
65803;PMS5003;65658;63.740;34.316;2023-04-15T08:42:10;4;4;
65803;PMS5003;65658;63.740;34.316;2023-04-15T08:49:59;4;4;
65803;PMS5003;65658;63.740;34.316;2023-04-15T08:57:50;3;3;
65803;PMS5003;65658;63.740;34.316;2023-04-15T09:01:36;3;3;
65803;PMS5003;65658;63.740;34.316;2023-04-15T09:05:23;3;3;
65803;PMS5003;65658;63.740;34.316;2023-04-15T09:13:02;2;2;
65803;PMS5003;65658;63.740;34.316;2023-04-15T09:20:40;3;4;
65803;PMS5003;65658;63.740;34.316;2023-04-15T09:24:38;3;3;
65803;PMS5003;65658;63.740;34.316;2023-04-15T09:36:17;4;4;
65803;PMS5003;65658;63.740;34.316;2023-04-15T09:40:04;2;2;
65803;PMS5003;65658;63.740;34.316;2023-04-15T09:43:50;2;3;
65803;PMS5003;65658;63.740;34.316;2023-04-15T09:47:47;2;2;
65803;PMS5003;65658;63.740;34.316;2023-04-15T09:55:25;3;3;
65803;PMS5003;65658;63.740;34.316;2023-04-15T09:59:11;3;3;
65803;PMS5003;65658;63.740;34.316;2023-04-15T10:02:58;3;3;
65803;PMS5003;65658;63.740;34.316;2023-04-15T10:06:56;3;3;
65803;PMS5003;65658;63.740;34.316;2023-04-15T10:10:43;2;2;
65803;PMS5003;65658;63.740;34.316;2023-04-15T10:14:31;3;3;
65803;PMS5003;65658;63.740;34.316;2023-04-15T10:22:09;3;4;
65803;PMS5003;65658;63.740;34.316;2023-04-15T10:26:06;2;2;
65803;PMS5003;65658;63.740;34.316;2023-04-15T10:29:53;2;2;
65803;PMS5003;65658;63.740;34.316;2023-04-15T10:33:50;3;3;
65803;PMS5003;65658;63.740;34.316;2023-04-15T10:41:28;8;9;
65803;PMS5003;65658;63.740;34.316;2023-04-15T10:45:17;4;4;
65803;PMS5003;65658;63.740;34.316;2023-04-15T10:49:10;4;4;
65803;PMS5003;65658;63.740;34.316;2023-04-15T10:56:50;2;2;
65803;PMS5003;65658;63.740;34.316;2023-04-15T11:00:36;2;2;
65803;PMS5003;65658;63.740;34.316;2023-04-15T11:08:13;3;3;
65803;PMS5003;65658;63.740;34.316;2023-04-15T11:12:05;2;3;
65803;PMS5003;65658;63.740;34.316;2023-04-15T11:15:54;2;2;
65803;PMS5003;65658;63.740;34.316;2023-04-15T11:19:39;3;3;
65803;PMS5003;65658;63.740;34.316;2023-04-15T11:23:30;2;2;
65803;PMS5003;65658;63.740;34.316;2023-04-15T11:34:56;3;3;
65803;PMS5003;65658;63.740;34.316;2023-04-15T11:38:43;3;3;
65803;PMS5003;65658;63.740;34.316;2023-04-15T11:42:30;3;3;
65803;PMS5003;65658;63.740;34.316;2023-04-15T11:46:17;3;3;
65803;PMS5003;65658;63.740;34.316;2023-04-15T11:53:54;2;2;
65803;PMS5003;65658;63.740;34.316;2023-04-15T11:57:40;4;6;
65803;PMS5003;65658;63.740;34.316;2023-04-15T12:01:30;4;4;
65803;PMS5003;65658;63.740;34.316;2023-04-15T12:05:16;6;7;
65803;PMS5003;65658;63.740;34.316;2023-04-15T12:09:06;4;4;
65803;PMS5003;65658;63.740;34.316;2023-04-15T12:12:53;3;5;
65803;PMS5003;65658;63.740;34.316;2023-04-15T12:16:40;3;3;
65803;PMS5003;65658;63.740;34.316;2023-04-15T12:24:19;3;3;
65803;PMS5003;65658;63.740;34.316;2023-04-15T12:35:57;2;2;
65803;PMS5003;65658;63.740;34.316;2023-04-15T12:39:45;1;1;
65803;PMS5003;65658;63.740;34.316;2023-04-15T12:43:31;4;4;
65803;PMS5003;65658;63.740;34.316;2023-04-15T12:47:17;2;2;
65803;PMS5003;65658;63.740;34.316;2023-04-15T12:51:15;3;3;
65803;PMS5003;65658;63.740;34.316;2023-04-15T12:55:01;4;4;
65803;PMS5003;65658;63.740;34.316;2023-04-15T12:58:47;2;2;
65803;PMS5003;65658;63.740;34.316;2023-04-15T13:02:45;1;1;
65803;PMS5003;65658;63.740;34.316;2023-04-15T13:06:31;2;3;
65803;PMS5003;65658;63.740;34.316;2023-04-15T13:10:17;2;3;
65803;PMS5003;65658;63.740;34.316;2023-04-15T13:14:06;2;2;
65803;PMS5003;65658;63.740;34.316;2023-04-15T13:17:53;4;4;
65803;PMS5003;65658;63.740;34.316;2023-04-15T13:33:11;2;2;
65803;PMS5003;65658;63.740;34.316;2023-04-15T13:36:56;0;0;
65803;PMS5003;65658;63.740;34.316;2023-04-15T13:40:43;3;4;
65803;PMS5003;65658;63.740;34.316;2023-04-15T13:44:29;2;2;
65803;PMS5003;65658;63.740;34.316;2023-04-15T13:48:16;2;2;
65803;PMS5003;65658;63.740;34.316;2023-04-15T13:52:13;2;2;
65803;PMS5003;65658;63.740;34.316;2023-04-15T13:55:59;2;2;
65803;PMS5003;65658;63.740;34.316;2023-04-15T13:59:45;2;4;
65803;PMS5003;65658;63.740;34.316;2023-04-15T14:03:32;2;2;
65803;PMS5003;65658;63.740;34.316;2023-04-15T14:07:18;3;3;
65803;PMS5003;65658;63.740;34.316;2023-04-15T14:11:05;2;2;
65803;PMS5003;65658;63.740;34.316;2023-04-15T14:14:51;1;2;
65803;PMS5003;65658;63.740;34.316;2023-04-15T14:18:46;2;3;
65803;PMS5003;65658;63.740;34.316;2023-04-15T14:30:14;4;4;
65803;PMS5003;65658;63.740;34.316;2023-04-15T14:34:01;4;4;
65803;PMS5003;65658;63.740;34.316;2023-04-15T14:41:37;2;2;
65803;PMS5003;65658;63.740;34.316;2023-04-15T14:45:34;3;3;
65803;PMS5003;65658;63.740;34.316;2023-04-15T14:53:11;3;3;
65803;PMS5003;65658;63.740;34.316;2023-04-15T14:56:58;1;1;
65803;PMS5003;65658;63.740;34.316;2023-04-15T15:00:55;1;1;
65803;PMS5003;65658;63.740;34.316;2023-04-15T15:04:53;2;2;
65803;PMS5003;65658;63.740;34.316;2023-04-15T15:20:14;5;5;
65803;PMS5003;65658;63.740;34.316;2023-04-15T15:24:01;4;4;
65803;PMS5003;65658;63.740;34.316;2023-04-15T15:35:29;2;2;
65803;PMS5003;65658;63.740;34.316;2023-04-15T15:50:48;2;2;
65803;PMS5003;65658;63.740;34.316;2023-04-15T15:54:46;2;2;
65803;PMS5003;65658;63.740;34.316;2023-04-15T15:58:43;3;4;
65803;PMS5003;65658;63.740;34.316;2023-04-15T16:02:41;2;2;
65803;PMS5003;65658;63.740;34.316;2023-04-15T16:10:18;3;4;
65803;PMS5003;65658;63.740;34.316;2023-04-15T16:14:04;4;4;
65803;PMS5003;65658;63.740;34.316;2023-04-15T16:17:51;3;3;
65803;PMS5003;65658;63.740;34.316;2023-04-15T16:21:37;3;3;
65803;PMS5003;65658;63.740;34.316;2023-04-15T16:29:14;3;3;
65803;PMS5003;65658;63.740;34.316;2023-04-15T16:37:11;3;3;
65803;PMS5003;65658;63.740;34.316;2023-04-15T16:40:57;3;3;
65803;PMS5003;65658;63.740;34.316;2023-04-15T16:44:44;2;2;
65803;PMS5003;65658;63.740;34.316;2023-04-15T16:48:31;2;2;
65803;PMS5003;65658;63.740;34.316;2023-04-15T16:52:16;2;3;
65803;PMS5003;65658;63.740;34.316;2023-04-15T16:59:54;4;4;
65803;PMS5003;65658;63.740;34.316;2023-04-15T17:03:41;4;4;
65803;PMS5003;65658;63.740;34.316;2023-04-15T17:11:18;6;7;
65803;PMS5003;65658;63.740;34.316;2023-04-15T17:15:05;9;9;
65803;PMS5003;65658;63.740;34.316;2023-04-15T17:18:53;12;14;
65803;PMS5003;65658;63.740;34.316;2023-04-15T17:22:40;9;10;
65803;PMS5003;65658;63.740;34.316;2023-04-15T17:26:38;6;6;
65803;PMS5003;65658;63.740;34.316;2023-04-15T17:30:27;28;29;
65803;PMS5003;65658;63.740;34.316;2023-04-15T17:34:16;49;58;
65803;PMS5003;65658;63.740;34.316;2023-04-15T17:38:43;56;70;
65803;PMS5003;65658;63.740;34.316;2023-04-15T17:42:37;65;78;
65803;PMS5003;65658;63.740;34.316;2023-04-15T17:46:30;81;87;
65803;PMS5003;65658;63.740;34.316;2023-04-15T17:50:22;144;159;
65803;PMS5003;65658;63.740;34.316;2023-04-15T17:54:15;112;126;
65803;PMS5003;65658;63.740;34.316;2023-04-15T17:58:07;122;140;
65803;PMS5003;65658;63.740;34.316;2023-04-15T18:02:01;163;182;
65803;PMS5003;65658;63.740;34.316;2023-04-15T18:05:56;374;426;
65803;PMS5003;65658;63.740;34.316;2023-04-15T18:09:45;267;298;
65803;PMS5003;65658;63.740;34.316;2023-04-15T18:13:56;116;139;
65803;PMS5003;65658;63.740;34.316;2023-04-15T18:17:49;130;156;
65803;PMS5003;65658;63.740;34.316;2023-04-15T18:21:41;62;78;
65803;PMS5003;65658;63.740;34.316;2023-04-15T18:25:44;70;82;
65803;PMS5003;65658;63.740;34.316;2023-04-15T18:29:36;48;57;
65803;PMS5003;65658;63.740;34.316;2023-04-15T18:33:38;36;40;
65803;PMS5003;65658;63.740;34.316;2023-04-15T18:37:29;25;27;
65803;PMS5003;65658;63.740;34.316;2023-04-15T18:41:28;27;28;
65803;PMS5003;65658;63.740;34.316;2023-04-15T18:45:29;24;24;
65803;PMS5003;65658;63.740;34.316;2023-04-15T18:50:03;35;41;
65803;PMS5003;65658;63.740;34.316;2023-04-15T18:54:47;27;28;
65803;PMS5003;65658;63.740;34.316;2023-04-15T18:58:36;28;29;
65803;PMS5003;65658;63.740;34.316;2023-04-15T19:06:17;36;43;
65803;PMS5003;65658;63.740;34.316;2023-04-15T19:14:24;25;25;
65803;PMS5003;65658;63.740;34.316;2023-04-15T19:18:35;26;27;
65803;PMS5003;65658;63.740;34.316;2023-04-15T19:23:10;23;23;
65803;PMS5003;65658;63.740;34.316;2023-04-15T19:26:58;26;27;
65803;PMS5003;65658;63.740;34.316;2023-04-15T19:35:13;16;16;
65803;PMS5003;65658;63.740;34.316;2023-04-15T19:39:01;26;29;
65803;PMS5003;65658;63.740;34.316;2023-04-15T19:54:51;22;22;
65803;PMS5003;65658;63.740;34.316;2023-04-15T19:58:53;25;25;
65803;PMS5003;65658;63.740;34.316;2023-04-15T20:07:24;19;19;
65803;PMS5003;65658;63.740;34.316;2023-04-15T20:11:15;32;33;
65803;PMS5003;65658;63.740;34.316;2023-04-15T20:15:03;32;34;
65803;PMS5003;65658;63.740;34.316;2023-04-15T20:19:37;32;33;
65803;PMS5003;65658;63.740;34.316;2023-04-15T20:29:12;32;33;
65803;PMS5003;65658;63.740;34.316;2023-04-15T20:36:56;45;52;
65803;PMS5003;65658;63.740;34.316;2023-04-15T20:40:46;49;60;
65803;PMS5003;65658;63.740;34.316;2023-04-15T20:44:37;37;40;
65803;PMS5003;65658;63.740;34.316;2023-04-15T20:48:25;33;34;
65803;PMS5003;65658;63.740;34.316;2023-04-15T20:52:37;27;29;
65803;PMS5003;65658;63.740;34.316;2023-04-15T20:56:46;19;19;
65803;PMS5003;65658;63.740;34.316;2023-04-15T21:04:59;23;24;
65803;PMS5003;65658;63.740;34.316;2023-04-15T21:08:45;32;37;
65803;PMS5003;65658;63.740;34.316;2023-04-15T21:12:33;35;36;
65803;PMS5003;65658;63.740;34.316;2023-04-15T21:16:20;44;50;
65803;PMS5003;65658;63.740;34.316;2023-04-15T21:20:09;44;52;
65803;PMS5003;65658;63.740;34.316;2023-04-15T21:24:09;40;46;
65803;PMS5003;65658;63.740;34.316;2023-04-15T21:31:52;42;50;
65803;PMS5003;65658;63.740;34.316;2023-04-15T21:35:41;35;40;
65803;PMS5003;65658;63.740;34.316;2023-04-15T21:40:25;18;19;
65803;PMS5003;65658;63.740;34.316;2023-04-15T21:44:45;18;19;
65803;PMS5003;65658;63.740;34.316;2023-04-15T21:48:44;23;25;
65803;PMS5003;65658;63.740;34.316;2023-04-15T21:57:03;25;26;
65803;PMS5003;65658;63.740;34.316;2023-04-15T22:01:14;23;25;
65803;PMS5003;65658;63.740;34.316;2023-04-15T22:05:00;9;9;
65803;PMS5003;65658;63.740;34.316;2023-04-15T22:08:47;7;8;
65803;PMS5003;65658;63.740;34.316;2023-04-15T22:20:29;22;23;
65803;PMS5003;65658;63.740;34.316;2023-04-15T22:24:27;21;23;
65803;PMS5003;65658;63.740;34.316;2023-04-15T22:28:14;18;18;
65803;PMS5003;65658;63.740;34.316;2023-04-15T22:32:01;14;14;
65803;PMS5003;65658;63.740;34.316;2023-04-15T22:35:47;10;10;
65803;PMS5003;65658;63.740;34.316;2023-04-15T22:39:34;5;5;
65803;PMS5003;65658;63.740;34.316;2023-04-15T22:43:31;3;3;
65803;PMS5003;65658;63.740;34.316;2023-04-15T22:55:00;10;10;
65803;PMS5003;65658;63.740;34.316;2023-04-15T22:58:47;9;9;
65803;PMS5003;65658;63.740;34.316;2023-04-15T23:02:34;9;9;
65803;PMS5003;65658;63.740;34.316;2023-04-15T23:06:20;11;11;
65803;PMS5003;65658;63.740;34.316;2023-04-15T23:10:06;11;14;
65803;PMS5003;65658;63.740;34.316;2023-04-15T23:13:53;8;8;
65803;PMS5003;65658;63.740;34.316;2023-04-15T23:21:31;3;3;
65803;PMS5003;65658;63.740;34.316;2023-04-15T23:29:10;9;9;
65803;PMS5003;65658;63.740;34.316;2023-04-15T23:36:47;7;8;
65803;PMS5003;65658;63.740;34.316;2023-04-15T23:40:33;8;9;
65803;PMS5003;65658;63.740;34.316;2023-04-15T23:44:20;8;8;
65803;PMS5003;65658;63.740;34.316;2023-04-15T23:51:58;7;7;
65803;PMS5003;65658;63.740;34.316;2023-04-15T23:59:47;4;4;
